sensor_id;sensor_type;location;lat;lon;timestamp;pressure;altitude;pressure_sealevel;temperature;humidity
12101;BME280;6113;42.678;23.334;2022-08-25T00:01:00;94669.06;;;22.76;100.00
12101;BME280;6113;42.678;23.334;2022-08-25T00:03:28;94646.38;;;22.65;100.00
12101;BME280;6113;42.678;23.334;2022-08-25T00:05:56;94668.56;;;22.78;100.00
12101;BME280;6113;42.678;23.334;2022-08-25T00:08:22;94672.94;;;22.73;100.00
12101;BME280;6113;42.678;23.334;2022-08-25T00:10:49;94672.19;;;22.73;100.00
12101;BME280;6113;42.678;23.334;2022-08-25T00:13:16;94647.06;;;22.58;100.00
12101;BME280;6113;42.678;23.334;2022-08-25T00:15:43;94649.50;;;22.61;100.00
12101;BME280;6113;42.678;23.334;2022-08-25T00:18:11;94673.13;;;22.75;100.00
12101;BME280;6113;42.678;23.334;2022-08-25T00:20:37;94661.34;;;22.62;100.00
12101;BME280;6113;42.678;23.334;2022-08-25T00:23:06;94662.91;;;22.70;100.00
12101;BME280;6113;42.678;23.334;2022-08-25T00:25:33;94658.44;;;22.67;100.00
12101;BME280;6113;42.678;23.334;2022-08-25T00:27:59;94563.88;;;21.99;100.00
12101;BME280;6113;42.678;23.334;2022-08-25T00:30:26;94670.28;;;22.68;100.00
12101;BME280;6113;42.678;23.334;2022-08-25T00:32:53;94660.59;;;22.61;100.00
12101;BME280;6113;42.678;23.334;2022-08-25T00:35:20;94656.13;;;22.58;100.00
12101;BME280;6113;42.678;23.334;2022-08-25T00:37:47;94659.44;;;22.57;100.00
12101;BME280;6113;42.678;23.334;2022-08-25T00:40:15;94658.09;;;22.50;100.00
12101;BME280;6113;42.678;23.334;2022-08-25T00:42:42;94650.81;;;22.47;100.00
12101;BME280;6113;42.678;23.334;2022-08-25T00:45:09;94670.03;;;22.45;100.00
12101;BME280;6113;42.678;23.334;2022-08-25T00:47:36;94671.97;;;22.50;100.00
12101;BME280;6113;42.678;23.334;2022-08-25T00:50:06;94665.09;;;22.51;100.00
12101;BME280;6113;42.678;23.334;2022-08-25T00:52:36;94638.28;;;22.33;100.00
12101;BME280;6113;42.678;23.334;2022-08-25T00:55:08;94658.22;;;22.45;100.00
12101;BME280;6113;42.678;23.334;2022-08-25T00:57:40;94652.66;;;22.45;100.00
12101;BME280;6113;42.678;23.334;2022-08-25T01:00:13;94659.09;;;22.60;100.00
12101;BME280;6113;42.678;23.334;2022-08-25T01:02:40;94657.81;;;22.61;100.00
12101;BME280;6113;42.678;23.334;2022-08-25T01:05:07;94647.31;;;22.67;100.00
12101;BME280;6113;42.678;23.334;2022-08-25T01:07:35;94645.19;;;22.73;100.00
12101;BME280;6113;42.678;23.334;2022-08-25T01:10:04;94640.78;;;22.78;100.00
12101;BME280;6113;42.678;23.334;2022-08-25T01:12:32;94642.69;;;22.83;100.00
12101;BME280;6113;42.678;23.334;2022-08-25T01:15:02;94636.06;;;22.86;100.00
12101;BME280;6113;42.678;23.334;2022-08-25T01:17:33;94627.38;;;22.89;100.00
12101;BME280;6113;42.678;23.334;2022-08-25T01:20:00;94630.56;;;22.93;100.00
12101;BME280;6113;42.678;23.334;2022-08-25T01:22:28;94630.00;;;22.95;100.00
12101;BME280;6113;42.678;23.334;2022-08-25T01:24:59;94630.16;;;22.89;100.00
12101;BME280;6113;42.678;23.334;2022-08-25T01:29:55;94631.69;;;22.77;100.00
12101;BME280;6113;42.678;23.334;2022-08-25T01:32:23;94627.38;;;22.69;100.00
12101;BME280;6113;42.678;23.334;2022-08-25T01:34:50;94640.28;;;22.66;100.00
12101;BME280;6113;42.678;23.334;2022-08-25T01:37:17;94629.84;;;22.59;100.00
12101;BME280;6113;42.678;23.334;2022-08-25T01:39:46;94619.28;;;22.58;100.00
12101;BME280;6113;42.678;23.334;2022-08-25T01:42:22;94630.94;;;22.56;100.00
12101;BME280;6113;42.678;23.334;2022-08-25T01:44:52;94634.25;;;22.55;100.00
12101;BME280;6113;42.678;23.334;2022-08-25T01:47:19;94630.53;;;22.52;100.00
12101;BME280;6113;42.678;23.334;2022-08-25T01:49:46;94634.19;;;22.47;100.00
12101;BME280;6113;42.678;23.334;2022-08-25T01:52:18;94645.50;;;22.49;100.00
12101;BME280;6113;42.678;23.334;2022-08-25T01:54:47;94623.94;;;22.29;100.00
12101;BME280;6113;42.678;23.334;2022-08-25T01:57:14;94640.06;;;22.44;100.00
12101;BME280;6113;42.678;23.334;2022-08-25T01:59:41;94623.22;;;22.29;100.00
12101;BME280;6113;42.678;23.334;2022-08-25T02:02:09;94643.91;;;22.41;100.00
12101;BME280;6113;42.678;23.334;2022-08-25T02:04:36;94630.78;;;22.41;100.00
12101;BME280;6113;42.678;23.334;2022-08-25T02:07:05;94630.56;;;22.39;100.00
12101;BME280;6113;42.678;23.334;2022-08-25T02:09:33;94632.59;;;22.39;100.00
12101;BME280;6113;42.678;23.334;2022-08-25T02:12:03;94634.09;;;22.40;100.00
12101;BME280;6113;42.678;23.334;2022-08-25T02:14:30;94629.28;;;22.27;100.00
12101;BME280;6113;42.678;23.334;2022-08-25T02:16:57;94585.66;;;21.95;100.00
12101;BME280;6113;42.678;23.334;2022-08-25T02:19:24;94619.41;;;22.19;100.00
12101;BME280;6113;42.678;23.334;2022-08-25T02:21:51;94604.94;;;22.00;100.00
12101;BME280;6113;42.678;23.334;2022-08-25T02:24:18;94623.78;;;22.15;100.00
12101;BME280;6113;42.678;23.334;2022-08-25T02:26:45;94628.66;;;22.21;100.00
12101;BME280;6113;42.678;23.334;2022-08-25T02:29:14;94620.97;;;22.27;100.00
12101;BME280;6113;42.678;23.334;2022-08-25T02:31:41;94622.16;;;22.32;100.00
12101;BME280;6113;42.678;23.334;2022-08-25T02:34:09;94619.59;;;22.34;100.00
12101;BME280;6113;42.678;23.334;2022-08-25T02:36:36;94624.81;;;22.37;100.00
12101;BME280;6113;42.678;23.334;2022-08-25T02:39:05;94599.44;;;22.20;100.00
12101;BME280;6113;42.678;23.334;2022-08-25T02:41:32;94620.03;;;22.38;100.00
12101;BME280;6113;42.678;23.334;2022-08-25T02:44:00;94611.91;;;22.27;100.00
12101;BME280;6113;42.678;23.334;2022-08-25T02:46:28;94620.75;;;22.38;100.00
12101;BME280;6113;42.678;23.334;2022-08-25T02:48:56;94605.09;;;22.28;100.00
12101;BME280;6113;42.678;23.334;2022-08-25T02:51:23;94621.44;;;22.31;100.00
12101;BME280;6113;42.678;23.334;2022-08-25T02:53:52;94630.78;;;22.28;100.00
12101;BME280;6113;42.678;23.334;2022-08-25T02:56:19;94624.00;;;22.17;100.00
12101;BME280;6113;42.678;23.334;2022-08-25T02:58:47;94640.63;;;22.17;100.00
12101;BME280;6113;42.678;23.334;2022-08-25T03:01:14;94636.47;;;22.23;100.00
12101;BME280;6113;42.678;23.334;2022-08-25T03:03:44;94639.03;;;22.21;100.00
12101;BME280;6113;42.678;23.334;2022-08-25T03:06:16;94638.06;;;22.31;100.00
12101;BME280;6113;42.678;23.334;2022-08-25T03:08:44;94621.84;;;22.22;100.00
12101;BME280;6113;42.678;23.334;2022-08-25T03:11:12;94527.72;;;21.58;100.00
12101;BME280;6113;42.678;23.334;2022-08-25T03:13:39;94640.38;;;22.27;100.00
12101;BME280;6113;42.678;23.334;2022-08-25T03:16:06;94619.72;;;22.16;100.00
12101;BME280;6113;42.678;23.334;2022-08-25T03:18:34;94625.47;;;22.30;100.00
12101;BME280;6113;42.678;23.334;2022-08-25T03:21:03;94631.69;;;22.11;100.00
12101;BME280;6113;42.678;23.334;2022-08-25T03:23:30;94601.97;;;21.85;100.00
12101;BME280;6113;42.678;23.334;2022-08-25T03:25:57;94618.47;;;22.04;100.00
12101;BME280;6113;42.678;23.334;2022-08-25T03:28:41;94637.22;;;22.23;100.00
12101;BME280;6113;42.678;23.334;2022-08-25T03:31:08;94635.72;;;22.22;100.00
12101;BME280;6113;42.678;23.334;2022-08-25T03:33:36;94604.44;;;21.76;100.00
12101;BME280;6113;42.678;23.334;2022-08-25T03:36:05;94635.56;;;21.95;100.00
12101;BME280;6113;42.678;23.334;2022-08-25T03:38:33;94646.19;;;22.04;100.00
12101;BME280;6113;42.678;23.334;2022-08-25T03:41:00;94645.25;;;22.14;100.00
12101;BME280;6113;42.678;23.334;2022-08-25T03:43:27;94628.72;;;22.09;100.00
12101;BME280;6113;42.678;23.334;2022-08-25T03:45:54;94619.31;;;22.12;100.00
12101;BME280;6113;42.678;23.334;2022-08-25T03:48:21;94635.06;;;22.29;100.00
12101;BME280;6113;42.678;23.334;2022-08-25T03:50:49;94629.34;;;22.15;100.00
12101;BME280;6113;42.678;23.334;2022-08-25T03:53:20;94606.97;;;22.00;100.00
12101;BME280;6113;42.678;23.334;2022-08-25T03:55:47;94623.50;;;22.05;100.00
12101;BME280;6113;42.678;23.334;2022-08-25T03:58:14;94625.97;;;21.83;100.00
12101;BME280;6113;42.678;23.334;2022-08-25T04:00:41;94621.81;;;21.89;100.00
12101;BME280;6113;42.678;23.334;2022-08-25T04:03:08;94627.25;;;21.95;100.00
12101;BME280;6113;42.678;23.334;2022-08-25T04:05:35;94602.94;;;21.88;100.00
12101;BME280;6113;42.678;23.334;2022-08-25T04:08:02;94623.38;;;22.11;100.00
12101;BME280;6113;42.678;23.334;2022-08-25T04:10:32;94623.78;;;22.15;100.00
12101;BME280;6113;42.678;23.334;2022-08-25T04:12:59;94628.66;;;22.21;100.00
12101;BME280;6113;42.678;23.334;2022-08-25T04:15:26;94638.91;;;22.26;100.00
12101;BME280;6113;42.678;23.334;2022-08-25T04:17:53;94631.75;;;22.31;100.00
12101;BME280;6113;42.678;23.334;2022-08-25T04:20:20;94625.25;;;22.28;100.00
12101;BME280;6113;42.678;23.334;2022-08-25T04:22:47;94625.47;;;22.30;100.00
12101;BME280;6113;42.678;23.334;2022-08-25T04:25:13;94624.00;;;22.17;100.00
12101;BME280;6113;42.678;23.334;2022-08-25T04:27:41;94619.13;;;21.97;100.00
12101;BME280;6113;42.678;23.334;2022-08-25T04:30:10;94614.78;;;21.88;100.00
12101;BME280;6113;42.678;23.334;2022-08-25T04:32:36;94620.22;;;21.94;100.00
12101;BME280;6113;42.678;23.334;2022-08-25T04:35:04;94611.91;;;21.94;100.00
12101;BME280;6113;42.678;23.334;2022-08-25T04:37:31;94590.69;;;21.83;100.00
12101;BME280;6113;42.678;23.334;2022-08-25T04:39:58;94621.13;;;22.09;100.00
12101;BME280;6113;42.678;23.334;2022-08-25T04:42:25;94635.31;;;22.19;100.00
12101;BME280;6113;42.678;23.334;2022-08-25T04:44:54;94631.31;;;22.27;100.00
12101;BME280;6113;42.678;23.334;2022-08-25T04:47:21;94612.69;;;22.15;100.00
12101;BME280;6113;42.678;23.334;2022-08-25T04:49:48;94632.59;;;22.39;100.00
12101;BME280;6113;42.678;23.334;2022-08-25T04:52:15;94616.59;;;22.32;100.00
12101;BME280;6113;42.678;23.334;2022-08-25T04:54:42;94618.19;;;22.40;100.00
12101;BME280;6113;42.678;23.334;2022-08-25T04:57:09;94636.69;;;22.58;100.00
12101;BME280;6113;42.678;23.334;2022-08-25T04:59:36;94642.66;;;22.62;100.00
12101;BME280;6113;42.678;23.334;2022-08-25T05:02:05;94613.97;;;22.26;100.00
12101;BME280;6113;42.678;23.334;2022-08-25T05:04:33;94641.72;;;22.60;100.00
12101;BME280;6113;42.678;23.334;2022-08-25T05:07:01;94639.00;;;22.67;100.00
12101;BME280;6113;42.678;23.334;2022-08-25T05:09:29;94539.63;;;22.12;100.00
12101;BME280;6113;42.678;23.334;2022-08-25T05:11:56;94623.59;;;22.79;98.28
12101;BME280;6113;42.678;23.334;2022-08-25T05:14:24;94643.56;;;22.78;99.17
12101;BME280;6113;42.678;23.334;2022-08-25T05:16:51;94632.31;;;22.83;97.74
12101;BME280;6113;42.678;23.334;2022-08-25T05:19:19;94602.19;;;22.67;98.20
12101;BME280;6113;42.678;23.334;2022-08-25T05:21:47;94625.59;;;22.79;97.66
12101;BME280;6113;42.678;23.334;2022-08-25T05:24:14;94589.84;;;22.55;97.38
12101;BME280;6113;42.678;23.334;2022-08-25T05:26:41;94617.22;;;22.71;98.21
12101;BME280;6113;42.678;23.334;2022-08-25T05:29:08;94615.22;;;22.38;100.00
12101;BME280;6113;42.678;23.334;2022-08-25T05:31:35;94611.59;;;22.30;100.00
12101;BME280;6113;42.678;23.334;2022-08-25T05:34:04;94622.06;;;22.12;100.00
12101;BME280;6113;42.678;23.334;2022-08-25T05:36:33;94625.78;;;22.27;100.00
12101;BME280;6113;42.678;23.334;2022-08-25T05:39:00;94620.84;;;22.46;100.00
12101;BME280;6113;42.678;23.334;2022-08-25T05:41:29;94618.13;;;22.53;100.00
12101;BME280;6113;42.678;23.334;2022-08-25T05:43:56;94620.38;;;22.55;100.00
12101;BME280;6113;42.678;23.334;2022-08-25T05:46:24;94616.75;;;22.60;99.72
12101;BME280;6113;42.678;23.334;2022-08-25T05:48:52;94610.38;;;22.72;99.23
12101;BME280;6113;42.678;23.334;2022-08-25T05:51:20;94621.53;;;22.80;98.28
12101;BME280;6113;42.678;23.334;2022-08-25T05:53:49;94520.72;;;22.23;97.20
12101;BME280;6113;42.678;23.334;2022-08-25T05:56:16;94621.22;;;22.83;97.19
12101;BME280;6113;42.678;23.334;2022-08-25T05:58:44;94622.69;;;22.84;97.38
12101;BME280;6113;42.678;23.334;2022-08-25T06:01:19;94624.19;;;22.85;96.95
12101;BME280;6113;42.678;23.334;2022-08-25T06:04:03;94566.56;;;22.37;97.34
12101;BME280;6113;42.678;23.334;2022-08-25T06:06:30;94602.97;;;22.54;98.48
12101;BME280;6113;42.678;23.334;2022-08-25T06:09:00;94627.72;;;22.65;98.50
12101;BME280;6113;42.678;23.334;2022-08-25T06:11:28;94628.06;;;22.62;98.58
12101;BME280;6113;42.678;23.334;2022-08-25T06:13:55;94628.66;;;22.68;98.83
12101;BME280;6113;42.678;23.334;2022-08-25T06:16:21;94621.50;;;22.72;99.09
12101;BME280;6113;42.678;23.334;2022-08-25T06:18:48;94622.31;;;22.80;98.97
12101;BME280;6113;42.678;23.334;2022-08-25T06:21:16;94625.25;;;22.82;98.87
12101;BME280;6113;42.678;23.334;2022-08-25T06:23:43;94626.84;;;22.91;99.15
12101;BME280;6113;42.678;23.334;2022-08-25T06:26:12;94619.31;;;22.78;99.55
12101;BME280;6113;42.678;23.334;2022-08-25T06:28:39;94611.13;;;22.73;99.79
12101;BME280;6113;42.678;23.334;2022-08-25T06:31:06;94612.47;;;23.00;99.03
12101;BME280;6113;42.678;23.334;2022-08-25T06:33:33;94623.06;;;23.21;97.36
12101;BME280;6113;42.678;23.334;2022-08-25T06:36:00;94622.31;;;23.21;96.29
12101;BME280;6113;42.678;23.334;2022-08-25T06:38:27;94609.34;;;23.44;96.23
12101;BME280;6113;42.678;23.334;2022-08-25T06:40:54;94623.34;;;23.66;94.84
12101;BME280;6113;42.678;23.334;2022-08-25T06:43:23;94615.91;;;23.89;94.62
12101;BME280;6113;42.678;23.334;2022-08-25T06:45:50;94622.09;;;24.02;92.93
12101;BME280;6113;42.678;23.334;2022-08-25T06:48:17;94618.25;;;23.78;92.03
12101;BME280;6113;42.678;23.334;2022-08-25T06:50:46;94613.03;;;24.02;92.16
12101;BME280;6113;42.678;23.334;2022-08-25T06:53:13;94618.03;;;24.03;91.93
12101;BME280;6113;42.678;23.334;2022-08-25T06:55:41;94615.31;;;24.18;92.03
12101;BME280;6113;42.678;23.334;2022-08-25T06:58:07;94524.84;;;23.82;91.13
12101;BME280;6113;42.678;23.334;2022-08-25T07:00:36;94613.19;;;24.47;88.60
12101;BME280;6113;42.678;23.334;2022-08-25T07:03:03;94618.25;;;24.56;88.83
12101;BME280;6113;42.678;23.334;2022-08-25T07:05:30;94618.25;;;24.63;88.25
12101;BME280;6113;42.678;23.334;2022-08-25T07:07:57;94606.59;;;24.79;88.37
12101;BME280;6113;42.678;23.334;2022-08-25T07:10:24;94639.84;;;24.85;87.69
12101;BME280;6113;42.678;23.334;2022-08-25T07:12:51;94625.69;;;24.75;86.56
12101;BME280;6113;42.678;23.334;2022-08-25T07:15:18;94628.13;;;24.79;86.29
12101;BME280;6113;42.678;23.334;2022-08-25T07:17:47;94611.78;;;24.90;85.54
12101;BME280;6113;42.678;23.334;2022-08-25T07:20:14;94619.06;;;25.01;85.15
12101;BME280;6113;42.678;23.334;2022-08-25T07:22:41;94617.78;;;25.09;84.16
12101;BME280;6113;42.678;23.334;2022-08-25T07:25:09;94620.03;;;25.18;84.21
12101;BME280;6113;42.678;23.334;2022-08-25T07:27:37;94621.50;;;25.42;82.31
12101;BME280;6113;42.678;23.334;2022-08-25T07:30:06;94618.31;;;25.60;81.54
12101;BME280;6113;42.678;23.334;2022-08-25T07:32:33;94613.47;;;25.83;79.58
12101;BME280;6113;42.678;23.334;2022-08-25T07:35:01;94602.31;;;25.75;78.00
12101;BME280;6113;42.678;23.334;2022-08-25T07:37:52;94616.44;;;25.85;78.05
12101;BME280;6113;42.678;23.334;2022-08-25T07:40:23;94618.25;;;26.05;77.48
12101;BME280;6113;42.678;23.334;2022-08-25T07:42:53;94609.06;;;26.19;77.16
12101;BME280;6113;42.678;23.334;2022-08-25T07:45:22;94584.31;;;26.16;77.05
12101;BME280;6113;42.678;23.334;2022-08-25T07:47:54;94625.22;;;26.28;76.46
12101;BME280;6113;42.678;23.334;2022-08-25T07:50:23;94614.63;;;26.19;76.59
12101;BME280;6113;42.678;23.334;2022-08-25T07:52:50;94624.44;;;26.35;75.38
12101;BME280;6113;42.678;23.334;2022-08-25T07:55:17;94627.38;;;26.52;75.30
12101;BME280;6113;42.678;23.334;2022-08-25T07:57:44;94619.56;;;26.50;74.12
12101;BME280;6113;42.678;23.334;2022-08-25T08:00:14;94590.22;;;26.27;75.60
12101;BME280;6113;42.678;23.334;2022-08-25T08:02:42;94596.81;;;26.54;75.00
12101;BME280;6113;42.678;23.334;2022-08-25T08:05:11;94610.63;;;26.84;74.39
12101;BME280;6113;42.678;23.334;2022-08-25T08:07:40;94597.50;;;26.69;73.25
12101;BME280;6113;42.678;23.334;2022-08-25T08:10:08;94608.00;;;26.86;73.20
12101;BME280;6113;42.678;23.334;2022-08-25T08:12:36;94595.69;;;26.89;72.48
12101;BME280;6113;42.678;23.334;2022-08-25T08:15:04;94606.53;;;27.09;72.43
12101;BME280;6113;42.678;23.334;2022-08-25T08:17:31;94606.50;;;27.16;72.36
12101;BME280;6113;42.678;23.334;2022-08-25T08:19:58;94589.84;;;27.02;72.10
12101;BME280;6113;42.678;23.334;2022-08-25T08:22:25;94599.09;;;27.12;71.44
12101;BME280;6113;42.678;23.334;2022-08-25T08:24:55;94575.06;;;27.09;70.98
12101;BME280;6113;42.678;23.334;2022-08-25T08:27:22;94593.50;;;27.12;70.65
12101;BME280;6113;42.678;23.334;2022-08-25T08:29:50;94595.75;;;27.06;71.44
12101;BME280;6113;42.678;23.334;2022-08-25T08:32:18;94587.72;;;27.34;71.20
12101;BME280;6113;42.678;23.334;2022-08-25T08:34:45;94582.22;;;27.60;69.57
12101;BME280;6113;42.678;23.334;2022-08-25T08:37:13;94595.03;;;27.88;69.68
12101;BME280;6113;42.678;23.334;2022-08-25T08:39:40;94584.31;;;28.10;68.11
12101;BME280;6113;42.678;23.334;2022-08-25T08:42:20;94581.22;;;28.23;67.38
12101;BME280;6113;42.678;23.334;2022-08-25T08:45:15;94574.06;;;28.30;65.88
12101;BME280;6113;42.678;23.334;2022-08-25T08:48:05;94581.28;;;28.16;63.32
12101;BME280;6113;42.678;23.334;2022-08-25T08:50:40;94582.75;;;28.17;64.92
12101;BME280;6113;42.678;23.334;2022-08-25T08:53:15;94583.16;;;28.47;63.66
12101;BME280;6113;42.678;23.334;2022-08-25T08:55:48;94558.31;;;28.61;62.06
12101;BME280;6113;42.678;23.334;2022-08-25T08:58:20;94505.25;;;28.36;59.72
12101;BME280;6113;42.678;23.334;2022-08-25T09:00:49;94581.25;;;29.02;59.35
12101;BME280;6113;42.678;23.334;2022-08-25T09:03:27;94575.78;;;28.95;59.09
12101;BME280;6113;42.678;23.334;2022-08-25T09:06:00;94577.56;;;28.73;59.92
12101;BME280;6113;42.678;23.334;2022-08-25T09:08:27;94583.69;;;28.89;59.84
12101;BME280;6113;42.678;23.334;2022-08-25T09:11:00;94578.44;;;28.93;58.54
12101;BME280;6113;42.678;23.334;2022-08-25T09:13:38;94578.22;;;28.81;59.28
12101;BME280;6113;42.678;23.334;2022-08-25T09:16:14;94580.03;;;28.70;59.26
12101;BME280;6113;42.678;23.334;2022-08-25T09:19:12;94573.31;;;28.56;59.77
12101;BME280;6113;42.678;23.334;2022-08-25T09:21:51;94577.97;;;28.44;59.28
12101;BME280;6113;42.678;23.334;2022-08-25T09:24:34;94577.00;;;28.32;58.61
12101;BME280;6113;42.678;23.334;2022-08-25T09:27:10;94579.38;;;28.18;58.73
12101;BME280;6113;42.678;23.334;2022-08-25T09:29:53;94575.19;;;28.10;59.42
12101;BME280;6113;42.678;23.334;2022-08-25T09:32:23;94559.06;;;27.84;59.60
12101;BME280;6113;42.678;23.334;2022-08-25T09:34:51;94568.13;;;28.09;59.48
12101;BME280;6113;42.678;23.334;2022-08-25T09:37:20;94580.13;;;28.19;60.84
12101;BME280;6113;42.678;23.334;2022-08-25T09:39:48;94571.41;;;28.32;60.33
12101;BME280;6113;42.678;23.334;2022-08-25T09:42:17;94575.31;;;28.46;58.71
12101;BME280;6113;42.678;23.334;2022-08-25T09:44:46;94557.78;;;28.45;57.49
12101;BME280;6113;42.678;23.334;2022-08-25T09:47:20;94532.41;;;28.43;57.60
12101;BME280;6113;42.678;23.334;2022-08-25T09:49:50;94533.66;;;28.59;57.89
12101;BME280;6113;42.678;23.334;2022-08-25T09:52:31;94558.47;;;28.63;54.98
12101;BME280;6113;42.678;23.334;2022-08-25T09:55:00;94572.91;;;28.59;56.18
12101;BME280;6113;42.678;23.334;2022-08-25T09:57:45;94555.22;;;28.66;56.89
12101;BME280;6113;42.678;23.334;2022-08-25T10:00:16;94561.19;;;28.96;53.07
12101;BME280;6113;42.678;23.334;2022-08-25T10:03:00;94555.09;;;28.90;54.13
12101;BME280;6113;42.678;23.334;2022-08-25T10:05:27;94566.63;;;28.94;54.13
12101;BME280;6113;42.678;23.334;2022-08-25T10:08:01;94551.34;;;28.78;53.45
12101;BME280;6113;42.678;23.334;2022-08-25T10:10:32;94568.16;;;28.78;53.27
12101;BME280;6113;42.678;23.334;2022-08-25T10:13:00;94570.59;;;28.91;54.05
12101;BME280;6113;42.678;23.334;2022-08-25T10:15:32;94568.56;;;29.01;54.38
12101;BME280;6113;42.678;23.334;2022-08-25T10:18:21;94560.38;;;29.22;54.87
12101;BME280;6113;42.678;23.334;2022-08-25T10:21:16;94560.00;;;29.45;52.72
12101;BME280;6113;42.678;23.334;2022-08-25T10:23:47;94560.50;;;29.60;52.21
12101;BME280;6113;42.678;23.334;2022-08-25T10:26:25;94547.50;;;29.83;51.81
12101;BME280;6113;42.678;23.334;2022-08-25T10:29:08;94560.88;;;30.02;52.63
12101;BME280;6113;42.678;23.334;2022-08-25T10:31:45;94548.44;;;30.24;49.56
12101;BME280;6113;42.678;23.334;2022-08-25T10:34:32;94555.94;;;30.40;49.14
12101;BME280;6113;42.678;23.334;2022-08-25T10:37:07;94547.97;;;30.55;48.90
12101;BME280;6113;42.678;23.334;2022-08-25T10:39:41;94545.41;;;30.69;48.74
12101;BME280;6113;42.678;23.334;2022-08-25T10:42:20;94543.16;;;30.77;48.27
12101;BME280;6113;42.678;23.334;2022-08-25T10:44:59;94548.03;;;30.86;47.86
12101;BME280;6113;42.678;23.334;2022-08-25T10:48:15;94540.88;;;31.04;47.06
12101;BME280;6113;42.678;23.334;2022-08-25T10:50:48;94527.84;;;31.08;47.02
12101;BME280;6113;42.678;23.334;2022-08-25T10:53:24;94525.47;;;31.05;46.86
12101;BME280;6113;42.678;23.334;2022-08-25T10:56:03;94523.28;;;30.94;46.88
12101;BME280;6113;42.678;23.334;2022-08-25T10:58:48;94538.84;;;30.85;47.53
12101;BME280;6113;42.678;23.334;2022-08-25T11:01:30;94535.19;;;30.73;47.28
12101;BME280;6113;42.678;23.334;2022-08-25T11:04:06;94542.84;;;30.82;47.46
12101;BME280;6113;42.678;23.334;2022-08-25T11:06:38;94534.06;;;30.97;46.31
12101;BME280;6113;42.678;23.334;2022-08-25T11:09:10;94532.06;;;31.19;46.68
12101;BME280;6113;42.678;23.334;2022-08-25T11:11:44;94525.75;;;31.09;45.97
12101;BME280;6113;42.678;23.334;2022-08-25T11:14:16;94520.75;;;30.98;46.85
12101;BME280;6113;42.678;23.334;2022-08-25T11:16:50;94522.19;;;31.08;47.03
12101;BME280;6113;42.678;23.334;2022-08-25T11:19:21;94517.13;;;31.16;47.86
12101;BME280;6113;42.678;23.334;2022-08-25T11:21:54;94516.03;;;31.00;47.79
12101;BME280;6113;42.678;23.334;2022-08-25T11:24:35;94501.53;;;30.94;47.83
12101;BME280;6113;42.678;23.334;2022-08-25T11:27:10;94498.50;;;31.11;47.91
12101;BME280;6113;42.678;23.334;2022-08-25T11:29:40;94503.47;;;31.22;48.11
12101;BME280;6113;42.678;23.334;2022-08-25T11:32:11;94493.78;;;31.04;46.47
12101;BME280;6113;42.678;23.334;2022-08-25T11:34:40;94462.47;;;30.89;46.35
12101;BME280;6113;42.678;23.334;2022-08-25T11:37:13;94487.38;;;31.13;46.83
12101;BME280;6113;42.678;23.334;2022-08-25T11:40:19;94471.88;;;31.33;46.85
12101;BME280;6113;42.678;23.334;2022-08-25T11:42:59;94487.34;;;31.43;46.26
12101;BME280;6113;42.678;23.334;2022-08-25T11:45:47;94481.03;;;31.33;46.00
12101;BME280;6113;42.678;23.334;2022-08-25T11:48:27;94469.38;;;30.97;46.64
12101;BME280;6113;42.678;23.334;2022-08-25T11:51:02;94483.53;;;30.78;47.75
12101;BME280;6113;42.678;23.334;2022-08-25T11:53:32;94490.44;;;30.56;48.10
12101;BME280;6113;42.678;23.334;2022-08-25T11:56:01;94476.81;;;30.43;47.60
12101;BME280;6113;42.678;23.334;2022-08-25T11:58:44;94452.38;;;30.46;47.07
12101;BME280;6113;42.678;23.334;2022-08-25T12:04:15;94457.16;;;30.83;47.05
12101;BME280;6113;42.678;23.334;2022-08-25T12:07:23;94475.03;;;30.88;46.44
12101;BME280;6113;42.678;23.334;2022-08-25T12:10:13;94469.25;;;30.95;46.24
12101;BME280;6113;42.678;23.334;2022-08-25T12:13:02;94461.78;;;31.09;45.71
12101;BME280;6113;42.678;23.334;2022-08-25T12:15:34;94474.31;;;31.18;45.79
12101;BME280;6113;42.678;23.334;2022-08-25T12:18:37;94465.94;;;31.29;45.65
12101;BME280;6113;42.678;23.334;2022-08-25T12:21:27;94457.31;;;31.36;45.13
12101;BME280;6113;42.678;23.334;2022-08-25T12:24:13;94467.44;;;31.51;44.44
12101;BME280;6113;42.678;23.334;2022-08-25T12:26:50;94472.19;;;31.48;45.28
12101;BME280;6113;42.678;23.334;2022-08-25T12:29:26;94463.34;;;31.22;44.63
12101;BME280;6113;42.678;23.334;2022-08-25T12:32:06;94467.16;;;31.26;45.29
12101;BME280;6113;42.678;23.334;2022-08-25T12:34:53;94468.91;;;31.31;45.08
12101;BME280;6113;42.678;23.334;2022-08-25T12:37:27;94434.94;;;31.18;45.23
12101;BME280;6113;42.678;23.334;2022-08-25T12:39:58;94464.53;;;31.19;44.85
12101;BME280;6113;42.678;23.334;2022-08-25T12:42:31;94479.13;;;30.96;45.57
12101;BME280;6113;42.678;23.334;2022-08-25T12:47:53;94475.75;;;30.58;44.74
12101;BME280;6113;42.678;23.334;2022-08-25T12:50:34;94453.94;;;30.28;44.65
12101;BME280;6113;42.678;23.334;2022-08-25T12:53:14;94473.00;;;30.30;45.30
12101;BME280;6113;42.678;23.334;2022-08-25T12:55:47;94464.16;;;30.24;45.57
12101;BME280;6113;42.678;23.334;2022-08-25T12:58:15;94469.03;;;30.23;45.43
12101;BME280;6113;42.678;23.334;2022-08-25T13:01:00;94473.31;;;30.24;45.85
12101;BME280;6113;42.678;23.334;2022-08-25T13:03:51;94462.03;;;30.34;46.12
12101;BME280;6113;42.678;23.334;2022-08-25T13:06:37;94438.13;;;30.23;45.18
12101;BME280;6113;42.678;23.334;2022-08-25T13:09:30;94508.03;;;30.38;46.22
12101;BME280;6113;42.678;23.334;2022-08-25T13:12:14;94474.06;;;30.25;46.47
12101;BME280;6113;42.678;23.334;2022-08-25T13:14:45;94480.59;;;30.18;46.46
12101;BME280;6113;42.678;23.334;2022-08-25T13:17:24;94480.31;;;30.04;47.14
12101;BME280;6113;42.678;23.334;2022-08-25T13:19:51;94476.03;;;29.94;47.25
12101;BME280;6113;42.678;23.334;2022-08-25T13:22:18;94468.16;;;29.83;47.45
12101;BME280;6113;42.678;23.334;2022-08-25T13:24:46;94473.19;;;29.75;47.05